createdAt,value
2022-10-05T00:02:31.880Z,9.83
2022-10-05T00:07:34.277Z,9.82
2022-10-05T00:12:36.662Z,9.81
2022-10-05T00:17:40.704Z,9.82
2022-10-05T00:22:43.161Z,9.81
2022-10-05T00:27:46.849Z,9.83
2022-10-05T00:32:49.670Z,9.84
2022-10-05T00:37:53.525Z,9.81
2022-10-05T00:43:09.521Z,9.80
2022-10-05T00:48:30.962Z,9.82
2022-10-05T00:53:39.104Z,9.86
2022-10-05T00:58:51.433Z,9.85
2022-10-05T01:03:56.752Z,9.85
2022-10-05T01:09:02.067Z,9.87
2022-10-05T01:14:07.402Z,9.90
2022-10-05T01:19:20.660Z,9.89
2022-10-05T01:24:31.497Z,9.88
2022-10-05T01:29:40.099Z,9.91
2022-10-05T01:34:50.822Z,9.94
2022-10-05T01:40:08.455Z,9.95
2022-10-05T01:45:18.742Z,9.96
2022-10-05T01:50:24.109Z,10.00
2022-10-05T01:55:41.418Z,10.05
2022-10-05T02:00:51.781Z,10.07
2022-10-05T02:05:58.295Z,10.08
2022-10-05T02:11:03.598Z,10.10
2022-10-05T02:16:10.501Z,10.12
2022-10-05T02:21:12.921Z,10.12
2022-10-05T02:26:16.865Z,10.10
2022-10-05T02:31:24.041Z,10.07
2022-10-05T02:36:32.110Z,10.06
2022-10-05T02:41:42.671Z,10.06
2022-10-05T02:46:50.983Z,10.04
2022-10-05T02:51:59.908Z,10.04
2022-10-05T02:57:05.269Z,10.03
2022-10-05T03:02:10.650Z,10.04
2022-10-05T03:07:20.677Z,10.07
2022-10-05T03:12:23.038Z,10.08
2022-10-05T03:17:30.738Z,10.08
2022-10-05T03:22:36.074Z,10.08
2022-10-05T03:27:38.491Z,10.10
2022-10-05T03:32:43.811Z,10.12
2022-10-05T03:37:51.664Z,10.10
2022-10-05T03:42:57.108Z,10.11
2022-10-05T03:48:05.441Z,10.10
2022-10-05T03:53:13.933Z,10.10
2022-10-05T03:58:28.094Z,10.09
2022-10-05T04:03:30.965Z,10.08
2022-10-05T04:08:40.040Z,10.08
2022-10-05T04:13:46.640Z,10.10
2022-10-05T04:18:54.555Z,10.13
2022-10-05T04:23:56.958Z,10.14
2022-10-05T04:29:02.273Z,10.13
2022-10-05T04:34:11.506Z,10.13
2022-10-05T04:39:13.985Z,10.14
2022-10-05T04:44:19.324Z,10.17
2022-10-05T04:49:23.794Z,10.19
2022-10-05T04:54:26.252Z,10.20
2022-10-05T04:59:41.515Z,10.24
2022-10-05T05:04:50.855Z,10.28
2022-10-05T05:09:55.344Z,10.36
2022-10-05T05:15:07.181Z,10.40
2022-10-05T05:20:16.088Z,10.45
2022-10-05T05:25:18.504Z,10.51
2022-10-05T05:30:24.653Z,10.61
2022-10-05T05:35:29.032Z,10.70
2022-10-05T05:40:34.747Z,10.77
2022-10-05T05:45:40.063Z,10.85
2022-10-05T05:50:45.398Z,10.97
2022-10-05T05:55:50.027Z,11.12
2022-10-05T06:00:57.359Z,11.23
2022-10-05T06:06:02.005Z,11.37
2022-10-05T06:11:09.749Z,11.49
2022-10-05T06:16:14.818Z,11.62
2022-10-05T06:21:37.554Z,11.72
2022-10-05T06:26:43.459Z,11.81
2022-10-05T06:31:49.423Z,11.89
2022-10-05T06:36:56.461Z,11.93
2022-10-05T06:42:04.776Z,12.00
2022-10-05T06:47:10.449Z,12.15
2022-10-05T06:52:22.594Z,12.37
2022-10-05T06:57:25.354Z,12.56
2022-10-05T07:02:33.973Z,12.77
2022-10-05T07:07:46.137Z,13.04
2022-10-05T07:12:51.475Z,13.45
2022-10-05T07:17:56.829Z,13.64
2022-10-05T07:23:03.115Z,13.85
2022-10-05T07:28:08.332Z,14.02
2022-10-05T07:33:31.016Z,14.06
2022-10-05T07:38:38.124Z,14.07
2022-10-05T07:44:03.339Z,14.16
2022-10-05T07:49:07.674Z,14.22
2022-10-05T07:54:23.092Z,14.34
2022-10-05T07:59:33.524Z,14.53
2022-10-05T08:04:50.073Z,14.74
2022-10-05T08:10:03.218Z,14.96
2022-10-05T08:15:13.322Z,14.95
2022-10-05T08:20:17.308Z,14.90
2022-10-05T08:25:24.583Z,14.97
2022-10-05T08:30:28.462Z,15.00
2022-10-05T08:35:34.098Z,15.11
2022-10-05T08:40:51.541Z,15.43
2022-10-05T08:46:14.271Z,15.43
2022-10-05T08:51:17.665Z,15.29
2022-10-05T08:56:22.205Z,15.07
2022-10-05T09:01:26.600Z,15.03
2022-10-05T09:06:31.537Z,15.07
2022-10-05T09:11:36.167Z,15.11
2022-10-05T09:16:46.514Z,15.23
2022-10-05T09:21:51.859Z,15.32
2022-10-05T09:26:56.242Z,15.45
2022-10-05T09:31:58.711Z,15.55
2022-10-05T09:37:04.593Z,15.63
2022-10-05T09:42:08.970Z,15.88
2022-10-05T09:47:14.371Z,16.05
2022-10-05T09:52:19.785Z,16.12
2022-10-05T09:57:23.328Z,16.37
2022-10-05T10:02:28.988Z,16.63
2022-10-05T10:07:44.179Z,16.76
2022-10-05T10:12:46.560Z,16.81
2022-10-05T10:17:52.068Z,16.87
2022-10-05T10:22:57.551Z,17.09
2022-10-05T10:28:02.995Z,17.40
2022-10-05T10:33:25.704Z,17.68
2022-10-05T10:38:28.670Z,17.78
2022-10-05T10:43:41.033Z,17.96
2022-10-05T10:48:46.348Z,18.16
2022-10-05T10:53:51.794Z,18.26
2022-10-05T10:58:55.135Z,18.19
2022-10-05T11:04:00.500Z,18.25
2022-10-05T11:09:08.139Z,18.37
2022-10-05T11:20:34.413Z,18.65
2022-10-05T11:25:42.816Z,18.61
2022-10-05T11:30:51.138Z,18.59
2022-10-05T11:35:55.838Z,18.67
2022-10-05T11:41:02.187Z,18.74
2022-10-05T11:46:06.733Z,18.86
2022-10-05T11:51:11.969Z,18.92
2022-10-05T11:56:16.375Z,18.96
2022-10-05T12:01:28.179Z,18.89
2022-10-05T12:06:32.623Z,18.82
2022-10-05T12:11:37.031Z,18.62
2022-10-05T12:16:45.996Z,18.50
2022-10-05T12:21:54.752Z,18.55
2022-10-05T12:27:01.367Z,18.63
2022-10-05T12:32:06.736Z,18.75
2022-10-05T12:37:10.148Z,18.82
2022-10-05T12:42:14.620Z,18.86
2022-10-05T12:47:16.982Z,19.04
2022-10-05T12:52:28.266Z,18.92
2022-10-05T12:57:38.008Z,18.72
2022-10-05T13:02:43.369Z,18.58
2022-10-05T13:07:47.956Z,18.58
2022-10-05T13:12:57.927Z,18.70
2022-10-05T13:18:01.291Z,18.70
2022-10-05T13:23:06.692Z,18.73
2022-10-05T13:28:15.489Z,18.77
2022-10-05T13:33:20.826Z,18.70
2022-10-05T13:38:26.370Z,18.62
2022-10-05T13:43:29.885Z,18.53
2022-10-05T13:48:35.270Z,18.42
2022-10-05T13:53:40.630Z,18.23
2022-10-05T13:58:43.012Z,18.06
2022-10-05T14:03:48.328Z,17.90
2022-10-05T14:08:53.188Z,17.84
2022-10-05T14:13:58.699Z,17.82
2022-10-05T14:19:04.137Z,17.67
2022-10-05T14:24:15.328Z,17.49
2022-10-05T14:29:24.961Z,17.41
2022-10-05T14:34:29.249Z,17.35
2022-10-05T14:39:34.377Z,17.42
2022-10-05T14:44:36.819Z,17.47
2022-10-05T14:49:48.209Z,17.37
2022-10-05T14:54:53.862Z,17.24
2022-10-05T14:59:57.283Z,17.12
2022-10-05T15:05:01.760Z,17.00
2022-10-05T15:10:19.046Z,16.80
2022-10-05T15:15:27.388Z,16.54
2022-10-05T15:20:34.847Z,16.29
2022-10-05T15:25:44.888Z,16.09
2022-10-05T15:30:52.643Z,15.94
2022-10-05T15:36:02.056Z,15.73
2022-10-05T15:41:04.460Z,15.53
2022-10-05T15:46:12.414Z,15.30
2022-10-05T15:51:21.828Z,15.06
2022-10-05T15:56:29.573Z,14.83
2022-10-05T16:01:32.086Z,14.59
2022-10-05T16:06:40.435Z,14.32
2022-10-05T16:11:45.973Z,14.01
2022-10-05T16:16:48.475Z,13.71
2022-10-05T16:21:51.453Z,13.45
2022-10-05T16:26:57.376Z,13.25
2022-10-05T16:32:05.695Z,13.10
2022-10-05T16:37:09.701Z,12.99
2022-10-05T16:42:22.703Z,12.88
2022-10-05T16:47:27.594Z,12.80
2022-10-05T16:52:31.693Z,12.75
2022-10-05T16:57:38.944Z,12.73
2022-10-05T17:02:41.463Z,12.71
2022-10-05T17:07:43.843Z,12.69
2022-10-05T17:12:51.298Z,12.70
2022-10-05T17:18:00.506Z,12.72
2022-10-05T17:23:18.223Z,12.73
2022-10-05T17:28:23.672Z,12.71
2022-10-05T17:33:27.646Z,12.64
2022-10-05T17:38:30.004Z,12.56
2022-10-05T17:43:33.830Z,12.49
2022-10-05T17:48:36.216Z,12.41
2022-10-05T17:53:52.705Z,12.35
2022-10-05T17:58:56.731Z,12.29
2022-10-05T18:04:02.197Z,12.30
2022-10-05T18:09:07.509Z,12.31
2022-10-05T18:14:12.876Z,12.32
2022-10-05T18:19:16.667Z,12.30
2022-10-05T18:24:24.835Z,12.30
2022-10-05T18:29:33.177Z,12.32
2022-10-05T18:34:39.232Z,12.37
2022-10-05T18:39:44.534Z,12.41
2022-10-05T18:44:48.912Z,12.41
2022-10-05T18:49:58.824Z,12.41
2022-10-05T18:55:10.011Z,12.42
2022-10-05T19:00:16.244Z,12.44
2022-10-05T19:05:46.228Z,12.44
2022-10-05T19:10:45.946Z,12.41
2022-10-05T19:15:51.411Z,12.38
2022-10-05T19:20:58.155Z,12.36
2022-10-05T19:26:02.444Z,12.34
2022-10-05T19:31:14.277Z,12.27
2022-10-05T19:36:16.700Z,12.20
2022-10-05T19:41:20.159Z,12.18
2022-10-05T19:46:22.638Z,12.20
2022-10-05T19:51:29.770Z,12.23
2022-10-05T19:56:33.388Z,12.23
2022-10-05T20:01:38.854Z,12.26
2022-10-05T20:06:42.200Z,12.29
2022-10-05T20:11:47.519Z,12.34
2022-10-05T20:17:11.982Z,12.34
2022-10-05T20:22:17.379Z,12.31
2022-10-05T20:27:22.757Z,12.30
2022-10-05T20:32:29.790Z,12.33
2022-10-05T20:37:33.228Z,12.37
2022-10-05T20:42:36.035Z,12.40
2022-10-05T20:47:38.924Z,12.39
2022-10-05T20:52:41.397Z,12.37
2022-10-05T20:57:45.941Z,12.34
2022-10-05T21:02:49.222Z,12.32
2022-10-05T21:07:51.647Z,12.29
2022-10-05T21:12:54.059Z,12.26
2022-10-05T21:17:56.609Z,12.24
2022-10-05T21:22:59.012Z,12.26
2022-10-05T21:28:01.921Z,12.27
2022-10-05T21:33:04.396Z,12.26
2022-10-05T21:38:06.801Z,12.22
2022-10-05T21:43:09.511Z,12.18
2022-10-05T21:48:13.267Z,12.13
2022-10-05T21:53:17.753Z,12.07
2022-10-05T21:58:21.435Z,12.02
2022-10-05T22:03:24.183Z,11.96
2022-10-05T22:08:28.332Z,11.91
2022-10-05T22:13:39.067Z,11.88
2022-10-05T22:18:42.047Z,11.87
2022-10-05T22:23:45.526Z,11.85
2022-10-05T22:28:48.444Z,11.84
2022-10-05T22:33:51.195Z,11.83
2022-10-05T22:38:53.606Z,11.83
2022-10-05T22:43:56.019Z,11.80
2022-10-05T22:48:58.554Z,11.72
2022-10-05T22:54:01.029Z,11.65
2022-10-05T22:59:03.500Z,11.62
2022-10-05T23:04:07.869Z,11.60
2022-10-05T23:09:10.799Z,11.56
2022-10-05T23:14:13.182Z,11.50
2022-10-05T23:19:15.829Z,11.46
2022-10-05T23:24:18.236Z,11.47
2022-10-05T23:29:20.635Z,11.49
2022-10-05T23:34:23.346Z,11.51
2022-10-05T23:39:25.778Z,11.51
2022-10-05T23:44:28.234Z,11.49
2022-10-05T23:49:30.702Z,11.46
2022-10-05T23:54:33.094Z,11.42
2022-10-05T23:59:35.502Z,11.40
